Flight Track Log - Related Links

Times and Time Zones

All times are in EDT time to prevent confusion due to time zone crossing. See the EJA729 flight status page for this flight to view local times or setup timezone preferences in your user account.

Time Position Orientation Groundspeed Altitude Reporting Facility
EDT Latitude Longitude Course Direction KTS MPH feet Rate Location/Type
Fri 02:47:36 PM 33.7833 -79.0194 301° West 239 275 5,400  Level Jacksonville Center
Fri 02:48:36 PM 33.8214 -79.1078 297° West 264 304 9,800 3,550 Climbing Jacksonville Center
Fri 02:49:36 PM 33.8661 -79.2108 298° West 304 350 12,500 3,100 Climbing Jacksonville Center
Fri 02:50:36 PM 33.9108 -79.3167 297° West 345 397 16,000 3,067 Climbing Jacksonville Center
Fri 02:51:00 PM 33.9440 -79.4864 298° West  Level FlightAware Approximate
Fri 02:52:00 PM 33.9863 -79.6056 301° West  Level FlightAware Approximate
Fri 02:52:36 PM 34.0131 -79.5456 298° West 377 434 21,700  Level Jacksonville Center
Fri 02:53:00 PM 34.0434 -79.7197 301° West  Level FlightAware Approximate
Fri 02:53:36 PM 34.0686 -79.6686 299° West 402 463 24,100  Level Jacksonville Center
Fri 02:54:36 PM 34.1217 -79.7922 297° West 407 468 26,500 2,250 Climbing Jacksonville Center
Fri 02:55:36 PM 34.1769 -79.9208 297° West 417 480 28,600 2,000 Climbing Jacksonville Center
Fri 02:56:36 PM 34.2322 -80.0519 297° West 428 493 30,500 1,740 Climbing Jacksonville Center
Fri 02:58:56 PM 34.3672 -80.3597 298° West 448 516 34,400 1,620 Climbing Atlanta Center
Fri 02:59:56 PM 34.4233 -80.4881 298° West 442 509 35,900 1,400 Climbing Atlanta Center
Fri 03:00:56 PM 34.4767 -80.6069 299° West 442 509 37,200 1,050 Climbing Atlanta Center
Fri 03:01:56 PM 34.5325 -80.7408 297° West 448 516 38,000 400 Climbing Atlanta Center
Fri 03:02:56 PM 34.5906 -80.8797 297° West 449 517 38,000  Level Atlanta Center
Fri 03:03:56 PM 34.6483 -81.0189 297° West 454 522 38,000  Level Atlanta Center
Fri 03:04:56 PM 34.7078 -81.1533 298° West 459 528 38,000  Level Atlanta Center
Fri 03:05:56 PM 34.7719 -81.3053 297° West 465 535 38,000  Level Atlanta Center
Fri 03:06:56 PM 34.8314 -81.4475 297° West 459 528 38,000  Level Atlanta Center
Fri 03:07:56 PM 34.8883 -81.5825 297° West 464 534 38,000  Level Atlanta Center
Fri 03:08:56 PM 34.9497 -81.7303 297° West 464 534 38,000  Level Atlanta Center
Fri 03:09:56 PM 35.0042 -81.8631 297° West 458 527 38,000  Level Atlanta Center
Fri 03:10:56 PM 35.0650 -82.0011 298° West 463 533 38,000  Level Atlanta Center
Fri 03:11:56 PM 35.1256 -82.1367 299° West 463 533 38,000  Level Atlanta Center
Fri 03:12:56 PM 35.1881 -82.2725 299° West 463 533 38,000 -100 Level Atlanta Center
Fri 03:13:56 PM 35.2419 -82.3958 298° West 463 533 37,800 -900 Descending Atlanta Center
Fri 03:14:56 PM 35.3042 -82.5297 300° West 457 526 36,200 -1,400 Descending Atlanta Center
Fri 03:15:56 PM 35.3686 -82.6736 299° West 451 519 35,000 -1,050 Descending Atlanta Center
Fri 03:16:56 PM 35.4306 -82.8153 298° West 451 519 34,100 -1,250 Descending Atlanta Center
Fri 03:17:56 PM 35.4881 -82.9419 299° West 463 533 32,500 -1,550 Descending Atlanta Center
Fri 03:18:56 PM 35.5497 -83.0817 299° West 470 541 31,000 -1,250 Descending Atlanta Center
Fri 03:19:56 PM 35.6197 -83.2417 298° West 475 547 30,000 -500 Descending Atlanta Center
Fri 03:20:56 PM 35.6853 -83.3894 299° West 475 547 30,000 -50 Level Atlanta Center
Fri 03:21:56 PM 35.7486 -83.5397 297° West 480 552 29,900 -850 Descending Atlanta Center
Fri 03:22:56 PM 35.7575 -83.7008 274° West 479 551 28,300 -1,550 Descending Atlanta Center
Fri 03:23:56 PM 35.7681 -83.8544 275° West 452 520 26,800 -1,500 Descending Atlanta Center
Fri 03:24:56 PM 35.7600 -84.0056 266° West 447 514 25,300 -1,450 Descending Atlanta Center
Fri 03:25:56 PM 35.7494 -84.1564 265° West 447 514 23,900 -1,150 Descending Atlanta Center
Fri 03:26:56 PM 35.7408 -84.3075 266° West 447 514 23,000 -450 Descending Atlanta Center
Fri 03:27:56 PM 35.7300 -84.4608 265° West 447 514 23,000 -250 Level Atlanta Center
Fri 03:28:56 PM 35.7211 -84.6117 266° West 447 514 22,500 -1,050 Descending Atlanta Center
Fri 03:29:56 PM 35.7119 -84.7575 266° West 441 507 20,900 -1,076 Descending Atlanta Center
Fri 03:33:07 PM 35.6525 -85.1833 260° West 407 468 18,000 -693 Descending Memphis Center
Fri 03:34:07 PM 35.6394 -85.3272 264° West 417 480 18,000  Level Memphis Center
Fri 03:35:07 PM 35.6328 -85.4681 267° West 424 488 18,000 -100 Level Memphis Center
Fri 03:36:07 PM 35.6047 -85.6078 256° West 424 488 17,800 -1,000 Descending Memphis Center
Fri 03:37:07 PM 35.5806 -85.7419 258° West 418 481 16,000 -1,900 Descending Memphis Center
Fri 03:38:07 PM 35.5472 -85.8561 250° West 390 449 14,000 -1,950 Descending Memphis Center
Fri 03:39:07 PM 35.4789 -85.9311 222° Southwest 343 395 12,100 -1,000 Descending Memphis Center
Fri 03:40:07 PM 35.3933 -85.9864 208° Southwest 330 380 12,000 -50 Descending Memphis Center
Fri 03:41:07 PM 35.3425 -86.0833 237° Southwest 343 395 12,000  Level Memphis Center
Fri 03:42:07 PM 35.3944 -86.1978 299° West 296 341 12,000  Level Memphis Center
Fri 03:43:07 PM 35.4778 -86.2625 328° Northwest 315 362 12,000 -450 Level Memphis Center
Fri 03:44:07 PM 35.5481 -86.3075 332° Northwest 315 362 11,100 -1,400 Descending Memphis Center
Fri 03:45:07 PM 35.6186 -86.3553 331° Northwest 307 353 9,200 -1,550 Descending Memphis Center
Fri 03:46:07 PM 35.6897 -86.3644 354° North 268 308 8,000 -650 Descending Memphis Center
Fri 03:47:07 PM 35.7572 -86.3842 347° North 254 292 7,900 -1,250 Descending Memphis Center
Fri 03:48:07 PM 35.8325 -86.3933 354° North 259 298 5,500 -2,450 Descending Memphis Center
Fri 03:49:07 PM 35.9058 -86.4078 351° North 265 305 3,000 -1,800 Descending Memphis Center
Fri 03:50:07 PM 35.9739 -86.4431 337° Northwest 258 297 1,900 -750 Descending Memphis Center
Fri 03:51:07 PM 36.0314 -86.4864 329° Northwest 240 276 1,500 -346 Descending Memphis Center
Fri 03:52:43 PM 36.0333 -86.5500 272° West 164 189 1,000 -313 Descending Nashville TRACON
Fri 03:54:00 PM 36.0090 -86.5201 141° Southeast  Level Estimated
Fri 04:01:00 PM 36.0090 -86.5201 141° Southeast  Level Estimated

Login

Don't have an account? Register now (free) for customized features, flight alerts, and more!